createdAt,value
2023-05-23T00:02:44.890Z,13.53
2023-05-23T00:17:48.424Z,13.21
2023-05-23T00:32:54.018Z,12.86
2023-05-23T00:47:59.331Z,12.69
2023-05-23T01:03:02.309Z,12.56
2023-05-23T01:18:14.562Z,12.51
2023-05-23T01:33:18.280Z,12.31
2023-05-23T01:48:22.223Z,12.09
2023-05-23T02:03:25.025Z,11.89
2023-05-23T02:18:29.334Z,11.79
2023-05-23T02:33:32.498Z,11.57
2023-05-23T02:48:35.349Z,11.33
2023-05-23T03:03:38.435Z,10.99
2023-05-23T03:18:44.012Z,10.82
2023-05-23T03:33:46.760Z,10.86
2023-05-23T03:48:49.652Z,12.34
2023-05-23T04:03:52.966Z,13.82
2023-05-23T04:18:58.636Z,14.30
2023-05-23T04:34:02.727Z,16.04
2023-05-23T04:49:05.767Z,15.84
2023-05-23T05:04:08.677Z,17.21
2023-05-23T05:19:11.761Z,18.06
2023-05-23T05:34:14.624Z,20.56
2023-05-23T05:49:19.756Z,21.53
2023-05-23T06:04:22.417Z,21.44
2023-05-23T06:19:25.366Z,22.18
2023-05-23T06:34:28.563Z,23.24
2023-05-23T06:49:31.414Z,24.63
2023-05-23T07:04:34.118Z,24.11
2023-05-23T07:19:37.844Z,25.63
2023-05-23T07:34:41.306Z,25.31
2023-05-23T07:49:45.081Z,26.25
2023-05-23T08:04:48.546Z,26.92
2023-05-23T08:19:51.761Z,25.70
2023-05-23T08:34:54.474Z,24.85
2023-05-23T08:49:59.496Z,24.52
2023-05-23T09:05:02.634Z,24.87
2023-05-23T09:20:15.275Z,24.58
2023-05-23T09:35:22.997Z,24.10
2023-05-23T09:50:32.411Z,23.26
2023-05-23T10:05:41.622Z,22.35
2023-05-23T10:20:49.642Z,21.43
2023-05-23T10:35:55.831Z,20.40
2023-05-23T10:51:06.617Z,19.94
2023-05-23T11:06:28.124Z,20.15
2023-05-23T11:21:32.258Z,21.04
2023-05-23T11:36:36.161Z,21.70
2023-05-23T11:51:39.271Z,21.49
2023-05-23T12:06:42.550Z,22.52
2023-05-23T12:21:49.659Z,23.61
2023-05-23T12:37:10.530Z,23.87
2023-05-23T12:52:19.963Z,23.35
2023-05-23T13:07:23.873Z,23.21
2023-05-23T13:22:26.653Z,22.91
2023-05-23T13:37:29.341Z,23.09
2023-05-23T13:52:32.127Z,23.91
2023-05-23T14:07:34.904Z,23.77
2023-05-23T14:22:37.669Z,23.27
2023-05-23T14:37:40.653Z,23.16
2023-05-23T14:52:43.378Z,23.55
2023-05-23T15:07:46.599Z,23.88
2023-05-23T15:22:49.515Z,23.71
2023-05-23T15:37:52.364Z,23.63
2023-05-23T15:52:55.323Z,23.78
2023-05-23T16:07:57.999Z,23.41
2023-05-23T16:23:01.170Z,22.95
2023-05-23T16:38:03.902Z,22.54
2023-05-23T16:53:06.563Z,21.97
2023-05-23T17:08:09.468Z,21.60
2023-05-23T17:23:12.707Z,21.66
2023-05-23T17:38:16.821Z,21.61
2023-05-23T17:53:19.669Z,21.23
2023-05-23T18:08:22.880Z,20.77
2023-05-23T18:23:26.386Z,20.21
2023-05-23T18:38:36.046Z,19.18
2023-05-23T18:53:42.212Z,19.08
2023-05-23T19:08:45.569Z,18.67
2023-05-23T19:23:48.293Z,18.26
2023-05-23T19:38:52.115Z,17.95
2023-05-23T19:53:55.009Z,17.77
2023-05-23T20:08:57.912Z,17.47
2023-05-23T20:24:01.086Z,17.12
2023-05-23T20:39:04.158Z,16.97
2023-05-23T20:54:07.364Z,16.86
2023-05-23T21:09:10.078Z,16.76
2023-05-23T21:24:14.328Z,16.68
2023-05-23T21:39:17.008Z,16.54
2023-05-23T21:54:20.019Z,16.34
2023-05-23T22:09:22.692Z,16.16
2023-05-23T22:24:26.418Z,15.93
2023-05-23T22:39:29.099Z,15.70
2023-05-23T22:54:31.878Z,15.76
2023-05-23T23:09:34.967Z,15.91
2023-05-23T23:24:37.674Z,16.04
2023-05-23T23:39:40.352Z,16.16
2023-05-23T23:54:43.297Z,16.18
